Terminal Aerodrome Forecast
Issued by NWS

Home | Current Version | Previous Version | Graphics & Text | Print | Product List | Glossary On
Versions: 1 2 3 4 5 6 7 8 9 10 11 12 13 14 15 16 17 18 19 20 21
000
FTUS43 KTOP 242141 AAA
TAFFOE
TAF AMD
KFOE 242141Z 2422/2518 31014G24KT 6SM BR VCSH OVC025
     FM242300 32015G25KT P6SM OVC025
     FM250200 32016KT P6SM OVC040
     FM250800 33012KT P6SM SCT100=

USA.gov is the U.S. government's official web portal to all federal, state and local government web resources and services.